METAR Data
IDs: Format: Raw Decoded Include TAF

Data at: 0830 UTC 18 Sep 2021

KACQ 180815Z AUTO 00000KT 10SM CLR 05/04 A3024 RMK AO2